Wilsie, West Virginia
Current Conditions -  °F | °C
As of 7:35 AM on Tuesday 27 Jan 2015 (Local Time) from KW22 Reporting Station
Light Snow Light Snow  
Wind Chill:   Ceiling: 1500
Heat Index: 18°   Visibility: 4mi
Dew Point: 16°   Wind: 7mph
Humidity: 93%   Direction: 230°SW
Pressure: 29.86"   Gusts: NA
Location:  38.69°N, 80.89°W
Report Text: KW22 271235Z AUTO 23006KT 4SM -SN FEW003 BKN015 OVC022 M08/M09 A2986 RMK AO2
Loading
Personal Weather Stations






























Interactive Weather Map New forecast layout! Learn more

10-Day Weather Forecast

Advertisements
Track Severe Weather on mobile